Pantodynamos — SVAG9 — position and weather

sailwx.info

Track history (hours):
 
Tides and Currents Weather Stations Pressure Air Temp Water Temp Dewpoint Dewpoint Depression Visibility Wind Speed Wind Dir Waves Ship Positions

Pantodynamos

Last reported at 2018-May-20 14:42 UTC. Time now 2018-May-27 08:10 UTC.
Position N 38°10' E 024°07'.

; draft 4.2 m.

Type: Cargo ship. MMSI: 241296000.

Date/timePositionNaut miles runAvg speedWind from/ knotsBaromVisibWave heightAir tempDewpointWater temp
2018-May-20 14:42N 38°10' E 024°07'1 6.9
2018-May-20 14:30N 38°08' E 024°08'4 6.8
2018-May-20 13:56N 38°05' E 024°09'3 7.0
2018-May-20 13:27N 38°01' E 024°10'  
2018-May-15 22:49N 37°29' E 025°56'2 6.8
2018-May-15 22:30N 37°31' E 025°54'16 7.2
2018-May-15 20:17N 37°41' E 025°39'2 7.1
2018-May-15 20:00N 37°43' E 025°37'4 7.1
2018-May-15 19:26N 37°45' E 025°33'3 7.2
2018-May-15 18:58N 37°48' E 025°30'4 7.5
2018-May-15 18:28N 37°50' E 025°26'9 7.6
2018-May-15 17:18N 37°56' E 025°17'32 7.2
2018-May-15 12:52N 38°17' E 024°47'3 6.9
2018-May-15 12:30N 38°19' E 024°44'  
2018-May-12 05:16N 38°11' E 024°07'3 7.8
2018-May-12 04:54N 38°08' E 024°08'4 7.9
2018-May-12 04:27N 38°05' E 024°08'4 7.7
2018-May-12 03:58N 38°02' E 024°11'  
Track history (hours):
 
Tides and Currents Weather Stations Pressure Air Temp Water Temp Dewpoint Dewpoint Depression Visibility Wind Speed Wind Dir Waves Ship Positions

Pantodynamos

Last reported at 2018-May-20 14:42 UTC. Time now 2018-May-27 08:10 UTC.
Position N 38°10' E 024°07'.

; draft 4.2 m.

Type: Cargo ship. MMSI: 241296000.

Date/timePositionNaut miles runAvg speedWind from/ knotsBaromVisibWave heightAir tempDewpointWater temp
2018-May-20 14:42N 38°10' E 024°07'1 6.9
2018-May-20 14:30N 38°08' E 024°08'4 6.8
2018-May-20 13:56N 38°05' E 024°09'3 7.0
2018-May-20 13:27N 38°01' E 024°10'  
2018-May-15 22:49N 37°29' E 025°56'2 6.8
2018-May-15 22:30N 37°31' E 025°54'16 7.2
2018-May-15 20:17N 37°41' E 025°39'2 7.1
2018-May-15 20:00N 37°43' E 025°37'4 7.1
2018-May-15 19:26N 37°45' E 025°33'3 7.2
2018-May-15 18:58N 37°48' E 025°30'4 7.5
2018-May-15 18:28N 37°50' E 025°26'9 7.6
2018-May-15 17:18N 37°56' E 025°17'32 7.2
2018-May-15 12:52N 38°17' E 024°47'3 6.9
2018-May-15 12:30N 38°19' E 024°44'  
2018-May-12 05:16N 38°11' E 024°07'3 7.8
2018-May-12 04:54N 38°08' E 024°08'4 7.9
2018-May-12 04:27N 38°05' E 024°08'4 7.7
2018-May-12 03:58N 38°02' E 024°11'  

Dump ship's entire track history